Time;durP1;ratioP1;P1;durP2;ratioP2;P2;SDS_P1;SDS_P2;PMS_P1;PMS_P2;Temp;Humidity;BMP_temperature;BMP_pressure;BME280_temperature;BME280_humidity;BME280_pressure;Samples;Min_cycle;Max_cycle;Signal;HPM_P1;HPM_P2
2022/09/14 00:00:40;;;;;;;;;;;;;;;;;;4933829;29;19923;-89
2022/09/14 00:03:06;;;;;;;;;;;;;;;;;;4931135;29;19938;-89
2022/09/14 00:05:31;;;;;;;;;;;;;;;;;;4927375;29;19914;-89
2022/09/14 00:07:56;;;;;;;;;;;;;;;;;;4932874;29;19930;-88
2022/09/14 00:10:22;;;;;;;;;;;;;;;;;;4932770;29;20475;-89
2022/09/14 00:12:47;;;;;;;;;;;;;;;;;;4919607;29;19914;-89
2022/09/14 00:15:12;;;;;;;;;;;;;;;;;;4928969;29;20069;-89
2022/09/14 00:17:37;;;;;;;;;;;;;;;;;;4935104;29;19915;-88
2022/09/14 00:20:03;;;;;;;;;;;;;;;;;;4934248;29;19918;-89
2022/09/14 00:22:28;;;;;;;;;;;;;;;;;;4932031;29;20009;-90
2022/09/14 00:24:53;;;;;;;;;;;;;;;;;;4917299;29;20322;-89
2022/09/14 00:27:18;;;;;;;;;;;;;;;;;;4931054;29;20455;-88
2022/09/14 00:29:43;;;;;;;;;;;;;;;;;;4936086;29;19965;-90
2022/09/14 00:32:08;;;;;;;;;;;;;;;;;;4932262;29;20337;-89
2022/09/14 00:34:34;;;;;;;;;;;;;;;;;;4912090;29;19915;-89
2022/09/14 00:36:59;;;;;;;;;;;;;;;;;;4929026;29;19915;-89
2022/09/14 00:39:24;;;;;;;;;;;;;;;;;;4925465;29;20494;-89
2022/09/14 00:41:49;;;;;;;;;;;;;;;;;;4928115;29;19919;-88
2022/09/14 00:44:15;;;;;;;;;;;;;;;;;;4927841;29;19922;-89
2022/09/14 00:46:40;;;;;;;;;;;;;;;;;;4927249;29;19926;-89
2022/09/14 00:49:05;;;;;;;;;;;;;;;;;;4933179;29;19915;-89
2022/09/14 00:51:31;;;;;;;;;;;;;;;;;;4925603;29;20294;-89
2022/09/14 00:53:56;;;;;;;;;;;;;;;;;;4928671;29;19933;-89
2022/09/14 00:56:22;;;;;;;;;;;;;;;;;;4934851;29;20017;-89
2022/09/14 00:58:47;;;;;;;;;;;;;;;;;;4928979;29;19915;-88
2022/09/14 01:01:12;;;;;;;;;;;;;;;;;;4927904;29;20175;-88
2022/09/14 01:03:37;;;;;;;;;;;;;;;;;;4933433;29;19919;-89
2022/09/14 01:06:02;;;;;;;;;;;;;;;;;;4934777;29;20073;-89
2022/09/14 01:08:28;;;;;;;;;;;;;;;;;;4931128;29;20129;-87
2022/09/14 01:10:53;;;;;;;;;;;;;;;;;;4929091;29;19918;-89
2022/09/14 01:13:18;;;;;;;;;;;;;;;;;;4915210;29;20081;-88
2022/09/14 01:15:43;;;;;;;;;;;;;;;;;;4929549;29;19918;-89
2022/09/14 01:18:08;;;;;;;;;;;;;;;;;;4928936;29;19922;-88
2022/09/14 01:20:34;;;;;;;;;;;;;;;;;;4929399;29;19921;-88
2022/09/14 01:22:59;;;;;;;;;;;;;;;;;;4933673;29;20381;-89
2022/09/14 01:25:26;;;;;;;;;;;;;;;;;;4922283;29;19958;-89
2022/09/14 01:27:51;;;;;;;;;;;;;;;;;;4927427;29;19919;-87
2022/09/14 01:30:17;;;;;;;;;;;;;;;;;;4929225;29;19919;-89
2022/09/14 01:32:42;;;;;;;;;;;;;;;;;;4928284;29;20357;-87
2022/09/14 01:35:07;;;;;;;;;;;;;;;;;;4922091;29;19922;-88
2022/09/14 01:37:32;;;;;;;;;;;;;;;;;;4936041;29;20352;-89
2022/09/14 01:39:57;;;;;;;;;;;;;;;;;;4933070;29;19921;-88
2022/09/14 01:42:23;;;;;;;;;;;;;;;;;;4928545;29;19914;-89
2022/09/14 01:44:48;;;;;;;;;;;;;;;;;;4931537;29;19915;-88
2022/09/14 01:47:13;;;;;;;;;;;;;;;;;;4929685;29;19926;-88
2022/09/14 01:49:38;;;;;;;;;;;;;;;;;;4935571;29;19914;-89
2022/09/14 01:52:03;;;;;;;;;;;;;;;;;;4933878;29;20001;-89
2022/09/14 01:54:29;;;;;;;;;;;;;;;;;;4932040;29;19947;-88
2022/09/14 01:56:54;;;;;;;;;;;;;;;;;;4933976;29;20417;-88
2022/09/14 01:59:19;;;;;;;;;;;;;;;;;;4935222;29;19930;-89
2022/09/14 02:01:44;;;;;;;;;;;;;;;;;;4927558;29;20325;-89
2022/09/14 02:04:10;;;;;;;;;;;;;;;;;;4934236;29;19956;-89
2022/09/14 02:06:35;;;;;;;;;;;;;;;;;;4931869;29;19927;-88
2022/09/14 02:09:00;;;;;;;;;;;;;;;;;;4937143;29;20017;-88
2022/09/14 02:11:25;;;;;;;;;;;;;;;;;;4929952;29;20314;-89
2022/09/14 02:13:50;;;;;;;;;;;;;;;;;;4936716;29;19962;-88
2022/09/14 02:16:15;;;;;;;;;;;;;;;;;;4936895;29;19937;-89
2022/09/14 02:18:42;;;;;;;;;;;;;;;;;;4914992;29;19921;-88
2022/09/14 02:21:07;;;;;;;;;;;;;;;;;;4926827;29;20392;-89
2022/09/14 02:23:32;;;;;;;;;;;;;;;;;;4931480;29;20017;-89
2022/09/14 02:25:57;;;;;;;;;;;;;;;;;;4927543;29;19918;-88
2022/09/14 02:28:23;;;;;;;;;;;;;;;;;;4933559;29;19954;-89
2022/09/14 02:30:48;;;;;;;;;;;;;;;;;;4929398;29;19938;-88
2022/09/14 02:33:13;;;;;;;;;;;;;;;;;;4932395;29;19937;-90
2022/09/14 02:35:38;;;;;;;;;;;;;;;;;;4924619;29;20300;-89
2022/09/14 02:38:04;;;;;;;;;;;;;;;;;;4929918;29;19967;-88
2022/09/14 02:40:29;;;;;;;;;;;;;;;;;;4912838;29;20003;-88
2022/09/14 02:42:54;;;;;;;;;;;;;;;;;;4934393;29;19915;-88
2022/09/14 02:45:19;;;;;;;;;;;;;;;;;;4931146;29;19966;-88
2022/09/14 02:47:44;;;;;;;;;;;;;;;;;;4922164;29;19994;-89
2022/09/14 02:50:10;;;;;;;;;;;;;;;;;;4930575;29;19950;-88
2022/09/14 02:52:35;;;;;;;;;;;;;;;;;;4932060;29;19951;-89
2022/09/14 02:55:00;;;;;;;;;;;;;;;;;;4920575;29;19947;-89
2022/09/14 02:57:25;;;;;;;;;;;;;;;;;;4929248;29;19983;-88
2022/09/14 02:59:50;;;;;;;;;;;;;;;;;;4932090;29;19915;-88
2022/09/14 03:02:16;;;;;;;;;;;;;;;;;;4925470;29;19958;-88
2022/09/14 03:04:41;;;;;;;;;;;;;;;;;;4933429;29;19919;-88
2022/09/14 03:07:07;;;;;;;;;;;;;;;;;;4933377;29;20343;-88
2022/09/14 03:09:32;;;;;;;;;;;;;;;;;;4931427;29;19925;-88
2022/09/14 03:11:57;;;;;;;;;;;;;;;;;;4932619;29;20316;-89
2022/09/14 03:14:23;;;;;;;;;;;;;;;;;;4919924;29;19915;-88
2022/09/14 03:16:48;;;;;;;;;;;;;;;;;;4927345;29;20336;-88
2022/09/14 03:19:13;;;;;;;;;;;;;;;;;;4932083;29;19915;-89
2022/09/14 03:21:38;;;;;;;;;;;;;;;;;;4923398;29;19915;-88
2022/09/14 03:24:03;;;;;;;;;;;;;;;;;;4932405;29;20000;-88
2022/09/14 03:26:29;;;;;;;;;;;;;;;;;;4928674;29;19983;-88
2022/09/14 03:28:54;;;;;;;;;;;;;;;;;;4924641;29;20586;-88
2022/09/14 03:31:19;;;;;;;;;;;;;;;;;;4931733;29;19915;-88
2022/09/14 03:33:44;;;;;;;;;;;;;;;;;;4929782;29;19951;-88
2022/09/14 03:36:10;;;;;;;;;;;;;;;;;;4929410;29;19920;-88
2022/09/14 03:38:35;;;;;;;;;;;;;;;;;;4926746;29;19918;-88
2022/09/14 03:41:00;;;;;;;;;;;;;;;;;;4932068;29;20592;-88
2022/09/14 03:43:26;;;;;;;;;;;;;;;;;;4929864;29;20006;-87
2022/09/14 03:45:51;;;;;;;;;;;;;;;;;;4932145;29;19994;-88
2022/09/14 03:48:16;;;;;;;;;;;;;;;;;;4929338;29;19927;-88
2022/09/14 03:50:42;;;;;;;;;;;;;;;;;;4924761;29;20274;-88
2022/09/14 03:53:07;;;;;;;;;;;;;;;;;;4926749;29;19930;-87
2022/09/14 03:55:32;;;;;;;;;;;;;;;;;;4929341;29;19944;-88
2022/09/14 03:57:57;;;;;;;;;;;;;;;;;;4934304;29;20452;-88
2022/09/14 04:00:22;;;;;;;;;;;;;;;;;;4932517;29;20316;-88
2022/09/14 04:02:48;;;;;;;;;;;;;;;;;;4934999;29;20388;-88
2022/09/14 04:05:13;;;;;;;;;;;;;;;;;;4931860;29;19915;-87
2022/09/14 04:07:38;;;;;;;;;;;;;;;;;;4936707;29;19926;-88
2022/09/14 04:10:04;;;;;;;;;;;;;;;;;;4936185;29;19918;-88
2022/09/14 04:12:29;;;;;;;;;;;;;;;;;;4936423;29;19970;-87
2022/09/14 04:14:54;;;;;;;;;;;;;;;;;;4924835;29;19916;-88
2022/09/14 04:17:19;;;;;;;;;;;;;;;;;;4934097;29;20554;-87
2022/09/14 04:19:45;;;;;;;;;;;;;;;;;;4928746;29;19915;-87
2022/09/14 04:22:10;;;;;;;;;;;;;;;;;;4929194;29;19915;-88
2022/09/14 04:24:35;;;;;;;;;;;;;;;;;;4932966;29;19919;-88
2022/09/14 04:27:00;;;;;;;;;;;;;;;;;;4931004;29;19933;-87
2022/09/14 04:29:25;;;;;;;;;;;;;;;;;;4935225;29;20344;-88
2022/09/14 04:31:51;;;;;;;;;;;;;;;;;;4930875;29;20254;-88
2022/09/14 04:34:16;;;;;;;;;;;;;;;;;;4930914;29;19942;-88
2022/09/14 04:36:41;;;;;;;;;;;;;;;;;;4931604;29;20319;-87
2022/09/14 04:39:06;;;;;;;;;;;;;;;;;;4931368;29;19935;-88
2022/09/14 04:41:31;;;;;;;;;;;;;;;;;;4934967;29;20346;-87
2022/09/14 04:43:56;;;;;;;;;;;;;;;;;;4939157;29;19919;-88
2022/09/14 04:46:22;;;;;;;;;;;;;;;;;;4938351;29;19942;-88
2022/09/14 04:48:47;;;;;;;;;;;;;;;;;;4923029;29;20280;-88
2022/09/14 04:51:18;;;;;;;;;;;;;;;;;;4932621;29;19915;-88
2022/09/14 04:53:43;;;;;;;;;;;;;;;;;;4928282;29;19919;-89
2022/09/14 04:56:08;;;;;;;;;;;;;;;;;;4927562;29;20093;-88
2022/09/14 04:58:34;;;;;;;;;;;;;;;;;;4931043;29;20420;-89
2022/09/14 05:00:59;;;;;;;;;;;;;;;;;;4923342;29;19916;-88
2022/09/14 05:03:24;;;;;;;;;;;;;;;;;;4925173;29;19975;-88
2022/09/14 05:05:49;;;;;;;;;;;;;;;;;;4924731;29;19922;-88
2022/09/14 05:08:14;;;;;;;;;;;;;;;;;;4927692;29;19923;-88
2022/09/14 05:10:39;;;;;;;;;;;;;;;;;;4925769;29;19922;-89
2022/09/14 05:13:04;;;;;;;;;;;;;;;;;;4931011;29;20470;-89
2022/09/14 05:15:30;;;;;;;;;;;;;;;;;;4923307;29;21267;-88
2022/09/14 05:17:55;;;;;;;;;;;;;;;;;;4912189;29;19919;-89
2022/09/14 05:20:20;;;;;;;;;;;;;;;;;;4922252;29;19966;-88
2022/09/14 05:22:45;;;;;;;;;;;;;;;;;;4921984;29;19914;-89
2022/09/14 05:25:13;;;;;;;;;;;;;;;;;;4923078;29;19941;-87
2022/09/14 05:27:40;;;;;;;;;;;;;;;;;;4928287;29;21338;-89
2022/09/14 05:30:05;;;;;;;;;;;;;;;;;;4924693;29;20001;-87
2022/09/14 05:32:30;;;;;;;;;;;;;;;;;;4919376;29;19930;-88
2022/09/14 05:34:56;;;;;;;;;;;;;;;;;;4919910;29;19919;-88
2022/09/14 05:37:21;;;;;;;;;;;;;;;;;;4933709;29;19918;-89
2022/09/14 05:39:46;;;;;;;;;;;;;;;;;;4922189;29;19919;-87
2022/09/14 05:42:11;;;;;;;;;;;;;;;;;;4921220;29;19963;-89
2022/09/14 05:44:36;;;;;;;;;;;;;;;;;;4918457;29;19962;-88
2022/09/14 05:47:01;;;;;;;;;;;;;;;;;;4926379;29;19926;-89
2022/09/14 05:49:27;;;;;;;;;;;;;;;;;;4923791;29;19918;-88
2022/09/14 05:51:52;;;;;;;;;;;;;;;;;;4914716;29;19930;-89
2022/09/14 05:54:17;;;;;;;;;;;;;;;;;;4930394;29;19925;-89
2022/09/14 05:56:42;;;;;;;;;;;;;;;;;;4923350;29;20437;-90
2022/09/14 05:59:09;;;;;;;;;;;;;;;;;;4919667;29;20005;-90
2022/09/14 06:01:34;;;;;;;;;;;;;;;;;;4922785;29;19919;-88
2022/09/14 06:04:01;;;;;;;;;;;;;;;;;;4928070;29;19950;-89
2022/09/14 06:06:26;;;;;;;;;;;;;;;;;;4928432;28;19919;-87
2022/09/14 06:08:52;;;;;;;;;;;;;;;;;;4922674;29;21718;-91
2022/09/14 06:11:17;;;;;;;;;;;;;;;;;;4910142;29;20069;-90
2022/09/14 06:13:42;;;;;;;;;;;;;;;;;;4927611;29;20025;-89
2022/09/14 06:16:08;;;;;;;;;;;;;;;;;;4917840;29;19915;-89
2022/09/14 06:18:33;;;;;;;;;;;;;;;;;;4919878;29;19926;-89
2022/09/14 06:20:58;;;;;;;;;;;;;;;;;;4921040;29;20420;-89
2022/09/14 06:23:23;;;;;;;;;;;;;;;;;;4919738;29;19919;-89
2022/09/14 06:25:48;;;;;;;;;;;;;;;;;;4919291;29;20403;-89
2022/09/14 06:28:13;;;;;;;;;;;;;;;;;;4922432;29;19934;-89
2022/09/14 06:30:39;;;;;;;;;;;;;;;;;;4917919;29;20350;-89
2022/09/14 06:33:04;;;;;;;;;;;;;;;;;;4919310;29;19922;-89
2022/09/14 06:35:29;;;;;;;;;;;;;;;;;;4918370;29;19915;-89
2022/09/14 06:37:54;;;;;;;;;;;;;;;;;;4922680;29;20374;-89
2022/09/14 06:40:19;;;;;;;;;;;;;;;;;;4924009;29;20017;-89
2022/09/14 06:42:45;;;;;;;;;;;;;;;;;;4919197;29;20277;-90
2022/09/14 06:45:10;;;;;;;;;;;;;;;;;;4919248;29;19963;-89
2022/09/14 06:47:35;;;;;;;;;;;;;;;;;;4919916;29;19922;-89
2022/09/14 06:50:00;;;;;;;;;;;;;;;;;;4926929;29;19914;-90
2022/09/14 06:52:25;;;;;;;;;;;;;;;;;;4920992;29;20071;-91
2022/09/14 06:54:51;;;;;;;;;;;;;;;;;;4926615;29;19958;-89
2022/09/14 06:57:16;;;;;;;;;;;;;;;;;;4920308;29;20395;-89
2022/09/14 06:59:41;;;;;;;;;;;;;;;;;;4920259;29;19938;-91
2022/09/14 07:02:06;;;;;;;;;;;;;;;;;;4930972;29;19930;-91
2022/09/14 07:04:31;;;;;;;;;;;;;;;;;;4943852;29;19915;-92
2022/09/14 07:06:56;;;;;;;;;;;;;;;;;;4921372;29;20071;-90
2022/09/14 07:09:22;;;;;;;;;;;;;;;;;;4921909;29;19915;-89
2022/09/14 07:11:48;;;;;;;;;;;;;;;;;;4924204;29;19919;-89
2022/09/14 07:14:13;;;;;;;;;;;;;;;;;;4916856;29;20078;-89
2022/09/14 07:16:38;;;;;;;;;;;;;;;;;;4905023;29;19923;-89
2022/09/14 07:19:03;;;;;;;;;;;;;;;;;;4920349;29;20513;-89
2022/09/14 07:21:28;;;;;;;;;;;;;;;;;;4918712;29;19915;-89
2022/09/14 07:23:54;;;;;;;;;;;;;;;;;;4919359;29;19922;-89
2022/09/14 07:26:19;;;;;;;;;;;;;;;;;;4919807;29;20022;-89
2022/09/14 07:28:45;;;;;;;;;;;;;;;;;;4932907;29;19986;-91
2022/09/14 07:31:10;;;;;;;;;;;;;;;;;;4931247;29;19937;-91
2022/09/14 07:33:35;;;;;;;;;;;;;;;;;;4930146;29;19954;-91
2022/09/14 07:36:01;;;;;;;;;;;;;;;;;;4920585;29;19922;-91
2022/09/14 07:38:26;;;;;;;;;;;;;;;;;;4921654;29;20289;-91
2022/09/14 07:40:52;;;;;;;;;;;;;;;;;;4933272;29;19914;-90
2022/09/14 07:43:17;;;;;;;;;;;;;;;;;;4933691;29;19986;-91
2022/09/14 07:45:42;;;;;;;;;;;;;;;;;;4935768;29;19922;-91
2022/09/14 07:48:07;;;;;;;;;;;;;;;;;;4928841;29;20065;-90
2022/09/14 07:50:33;;;;;;;;;;;;;;;;;;4923287;29;19915;-89
2022/09/14 07:52:58;;;;;;;;;;;;;;;;;;4919206;29;19919;-89
2022/09/14 07:55:23;;;;;;;;;;;;;;;;;;4925387;29;19915;-90
2022/09/14 07:57:48;;;;;;;;;;;;;;;;;;4924559;29;19911;-91
2022/09/14 08:00:13;;;;;;;;;;;;;;;;;;4928738;29;20062;-90
2022/09/14 08:02:39;;;;;;;;;;;;;;;;;;4921851;29;20005;-90
2022/09/14 08:05:04;;;;;;;;;;;;;;;;;;4930042;29;19968;-90
2022/09/14 08:07:29;;;;;;;;;;;;;;;;;;4924483;29;19958;-90
2022/09/14 08:09:54;;;;;;;;;;;;;;;;;;4927796;29;19919;-90
2022/09/14 08:12:19;;;;;;;;;;;;;;;;;;4929123;29;19971;-90
2022/09/14 08:14:45;;;;;;;;;;;;;;;;;;4923579;29;19915;-90
2022/09/14 08:17:10;;;;;;;;;;;;;;;;;;4922020;29;19915;-88
2022/09/14 08:19:36;;;;;;;;;;;;;;;;;;4921927;29;19978;-91
2022/09/14 08:22:01;;;;;;;;;;;;;;;;;;4925825;29;19926;-91
2022/09/14 08:24:26;;;;;;;;;;;;;;;;;;4922846;29;19995;-88
2022/09/14 08:26:51;;;;;;;;;;;;;;;;;;4918601;29;20381;-88
2022/09/14 08:29:16;;;;;;;;;;;;;;;;;;4921441;29;19919;-88
2022/09/14 08:31:44;;;;;;;;;;;;;;;;;;4921077;29;20014;-89
2022/09/14 08:34:09;;;;;;;;;;;;;;;;;;4920821;29;19915;-90
2022/09/14 08:36:34;;;;;;;;;;;;;;;;;;4927594;29;20289;-90
2022/09/14 08:38:59;;;;;;;;;;;;;;;;;;4922591;29;20035;-90
2022/09/14 08:41:25;;;;;;;;;;;;;;;;;;4928613;29;19922;-90
2022/09/14 08:43:50;;;;;;;;;;;;;;;;;;4926174;29;19946;-90
2022/09/14 08:46:15;;;;;;;;;;;;;;;;;;4930417;29;20013;-91
2022/09/14 08:48:40;;;;;;;;;;;;;;;;;;4925498;29;20051;-91
2022/09/14 08:51:06;;;;;;;;;;;;;;;;;;4933723;29;20139;-91
2022/09/14 08:53:31;;;;;;;;;;;;;;;;;;4933113;29;20353;-90
2022/09/14 08:55:57;;;;;;;;;;;;;;;;;;4908365;29;19930;-90
2022/09/14 08:58:22;;;;;;;;;;;;;;;;;;4921350;29;19919;-89
2022/09/14 09:00:47;;;;;;;;;;;;;;;;;;4916035;29;19922;-88
2022/09/14 09:03:12;;;;;;;;;;;;;;;;;;4918169;29;19925;-89
2022/09/14 09:05:37;;;;;;;;;;;;;;;;;;4922016;29;19919;-91
2022/09/14 09:08:02;;;;;;;;;;;;;;;;;;4927891;29;19919;-91
2022/09/14 09:10:28;;;;;;;;;;;;;;;;;;4925251;29;19926;-91
2022/09/14 09:12:53;;;;;;;;;;;;;;;;;;4924289;29;19954;-89
2022/09/14 09:15:18;;;;;;;;;;;;;;;;;;4922700;29;19925;-90
2022/09/14 09:17:43;;;;;;;;;;;;;;;;;;4922654;29;19946;-91
2022/09/14 09:20:08;;;;;;;;;;;;;;;;;;4927774;29;20312;-91
2022/09/14 09:22:34;;;;;;;;;;;;;;;;;;4936338;29;19922;-90
2022/09/14 09:24:59;;;;;;;;;;;;;;;;;;4928447;29;19923;-90
2022/09/14 09:27:26;;;;;;;;;;;;;;;;;;4928124;29;19926;-91
2022/09/14 09:29:51;;;;;;;;;;;;;;;;;;4929200;29;19923;-91
2022/09/14 09:32:16;;;;;;;;;;;;;;;;;;4932821;29;19923;-90
2022/09/14 09:34:42;;;;;;;;;;;;;;;;;;4922952;29;19915;-90
2022/09/14 09:37:07;;;;;;;;;;;;;;;;;;4929051;29;19918;-90
2022/09/14 09:39:32;;;;;;;;;;;;;;;;;;4920106;29;19919;-89
2022/09/14 09:41:57;;;;;;;;;;;;;;;;;;4923660;29;20615;-90
2022/09/14 09:44:22;;;;;;;;;;;;;;;;;;4918402;29;19950;-90
2022/09/14 09:46:48;;;;;;;;;;;;;;;;;;4920383;29;19965;-88
2022/09/14 09:49:13;;;;;;;;;;;;;;;;;;4921988;29;20404;-88
2022/09/14 09:51:38;;;;;;;;;;;;;;;;;;4917911;29;20737;-91
2022/09/14 09:54:03;;;;;;;;;;;;;;;;;;4923964;29;19979;-90
2022/09/14 09:56:28;;;;;;;;;;;;;;;;;;4921276;29;20152;-89
2022/09/14 09:58:53;;;;;;;;;;;;;;;;;;4901737;29;19938;-88
2022/09/14 10:01:19;;;;;;;;;;;;;;;;;;4915110;29;20305;-89
2022/09/14 10:03:50;;;;;;;;;;;;;;;;;;4920937;29;19922;-91
2022/09/14 10:06:15;;;;;;;;;;;;;;;;;;4927247;29;20325;-90
2022/09/14 10:08:40;;;;;;;;;;;;;;;;;;4924702;29;19923;-90
2022/09/14 10:11:05;;;;;;;;;;;;;;;;;;4927459;29;19922;-90
2022/09/14 10:13:31;;;;;;;;;;;;;;;;;;4922054;29;19914;-91
2022/09/14 10:15:56;;;;;;;;;;;;;;;;;;4928439;29;19911;-90
2022/09/14 10:18:21;;;;;;;;;;;;;;;;;;4932891;29;20006;-91
2022/09/14 10:20:46;;;;;;;;;;;;;;;;;;4919929;29;19920;-89
2022/09/14 10:23:11;;;;;;;;;;;;;;;;;;4917865;29;19919;-89
2022/09/14 10:25:37;;;;;;;;;;;;;;;;;;4914328;29;19919;-92
2022/09/14 10:28:02;;;;;;;;;;;;;;;;;;4925808;28;19919;-90
2022/09/14 10:30:27;;;;;;;;;;;;;;;;;;4920101;29;19918;-89
2022/09/14 10:32:53;;;;;;;;;;;;;;;;;;4919552;29;19922;-90
2022/09/14 10:35:18;;;;;;;;;;;;;;;;;;4933052;29;19938;-90
2022/09/14 10:37:43;;;;;;;;;;;;;;;;;;4919963;29;19996;-91
2022/09/14 10:40:14;;;;;;;;;;;;;;;;;;4928660;29;19962;-90
2022/09/14 10:42:39;;;;;;;;;;;;;;;;;;4920625;29;19971;-91
2022/09/14 10:45:04;;;;;;;;;;;;;;;;;;4922818;29;20322;-88
2022/09/14 10:47:30;;;;;;;;;;;;;;;;;;4909803;29;20306;-89
2022/09/14 10:49:55;;;;;;;;;;;;;;;;;;4913882;29;19922;-90
2022/09/14 10:52:20;;;;;;;;;;;;;;;;;;4921338;29;20377;-90
2022/09/14 10:54:45;;;;;;;;;;;;;;;;;;4919732;29;19911;-90
2022/09/14 10:57:11;;;;;;;;;;;;;;;;;;4933718;29;19922;-91
2022/09/14 10:59:37;;;;;;;;;;;;;;;;;;4929234;29;19919;-91
2022/09/14 11:02:03;;;;;;;;;;;;;;;;;;4922785;29;19969;-88
2022/09/14 11:04:28;;;;;;;;;;;;;;;;;;4928313;29;19986;-90
2022/09/14 11:06:53;;;;;;;;;;;;;;;;;;4924928;29;19971;-90
2022/09/14 11:09:18;;;;;;;;;;;;;;;;;;4925376;29;19984;-88
2022/09/14 11:11:44;;;;;;;;;;;;;;;;;;4924392;29;19915;-88
2022/09/14 11:14:09;;;;;;;;;;;;;;;;;;4927176;29;19949;-91
2022/09/14 11:16:34;;;;;;;;;;;;;;;;;;4930208;29;19922;-90
2022/09/14 11:18:59;;;;;;;;;;;;;;;;;;4917762;29;20333;-89
2022/09/14 11:21:24;;;;;;;;;;;;;;;;;;4922843;29;19940;-88
2022/09/14 11:23:50;;;;;;;;;;;;;;;;;;4913259;29;19954;-89
2022/09/14 11:26:15;;;;;;;;;;;;;;;;;;4932205;29;20013;-90
2022/09/14 11:28:40;;;;;;;;;;;;;;;;;;4926701;29;19918;-91
2022/09/14 11:31:05;;;;;;;;;;;;;;;;;;4927500;29;19919;-88
2022/09/14 11:33:30;;;;;;;;;;;;;;;;;;4928690;29;19918;-91
2022/09/14 11:35:56;;;;;;;;;;;;;;;;;;4926371;29;20300;-90
2022/09/14 11:38:21;;;;;;;;;;;;;;;;;;4923708;29;19919;-90
2022/09/14 11:40:46;;;;;;;;;;;;;;;;;;4923823;29;20370;-89
2022/09/14 11:43:11;;;;;;;;;;;;;;;;;;4919524;29;19918;-87
2022/09/14 11:45:36;;;;;;;;;;;;;;;;;;4921329;29;19930;-89
2022/09/14 11:48:01;;;;;;;;;;;;;;;;;;4929340;29;20031;-91
2022/09/14 11:50:27;;;;;;;;;;;;;;;;;;4932835;29;19926;-91
2022/09/14 11:52:52;;;;;;;;;;;;;;;;;;4915865;29;19993;-90
2022/09/14 11:55:17;;;;;;;;;;;;;;;;;;4932740;29;20308;-91
2022/09/14 11:57:43;;;;;;;;;;;;;;;;;;4932272;29;19918;-92
2022/09/14 12:00:10;;;;;;;;;;;;;;;;;;4932635;29;19978;-91
2022/09/14 12:02:35;;;;;;;;;;;;;;;;;;4932232;29;19915;-90
2022/09/14 12:05:01;;;;;;;;;;;;;;;;;;4931728;29;20377;-90
2022/09/14 12:07:26;;;;;;;;;;;;;;;;;;4932341;29;19922;-90
2022/09/14 12:09:52;;;;;;;;;;;;;;;;;;4932642;29;19953;-91
2022/09/14 12:12:17;;;;;;;;;;;;;;;;;;4932452;29;19925;-90
2022/09/14 12:14:43;;;;;;;;;;;;;;;;;;4935060;29;19948;-91
2022/09/14 12:17:08;;;;;;;;;;;;;;;;;;4936248;29;19911;-92
2022/09/14 12:19:34;;;;;;;;;;;;;;;;;;4913503;29;20002;-91
2022/09/14 12:22:01;;;;;;;;;;;;;;;;;;4936179;29;19946;-91
2022/09/14 12:24:26;;;;;;;;;;;;;;;;;;4930421;29;19911;-89
2022/09/14 12:26:51;;;;;;;;;;;;;;;;;;4928212;29;19966;-91
2022/09/14 12:29:17;;;;;;;;;;;;;;;;;;4935875;29;20380;-89
2022/09/14 12:31:42;;;;;;;;;;;;;;;;;;4934951;29;20427;-90
2022/09/14 12:34:07;;;;;;;;;;;;;;;;;;4935661;29;20014;-89
2022/09/14 12:36:32;;;;;;;;;;;;;;;;;;4935832;29;20250;-90
2022/09/14 12:38:57;;;;;;;;;;;;;;;;;;4935487;29;20326;-90
2022/09/14 12:41:23;;;;;;;;;;;;;;;;;;4936183;29;19911;-91
2022/09/14 12:43:48;;;;;;;;;;;;;;;;;;4932260;29;20376;-90
2022/09/14 12:46:13;;;;;;;;;;;;;;;;;;4926365;29;19918;-91
2022/09/14 12:48:38;;;;;;;;;;;;;;;;;;4935920;29;20477;-90
2022/09/14 12:51:04;;;;;;;;;;;;;;;;;;4935094;29;19915;-90
2022/09/14 12:53:29;;;;;;;;;;;;;;;;;;4935315;29;19922;-92
2022/09/14 12:55:54;;;;;;;;;;;;;;;;;;4925852;29;19916;-89
2022/09/14 12:58:19;;;;;;;;;;;;;;;;;;4929672;29;20289;-87
2022/09/14 13:00:44;;;;;;;;;;;;;;;;;;4931821;29;19914;-88
2022/09/14 13:03:10;;;;;;;;;;;;;;;;;;4928095;29;19926;-88
2022/09/14 13:05:35;;;;;;;;;;;;;;;;;;4923113;29;19923;-87
2022/09/14 13:08:00;;;;;;;;;;;;;;;;;;4926169;29;20297;-89
2022/09/14 13:10:27;;;;;;;;;;;;;;;;;;4934871;29;19915;-89
2022/09/14 13:12:52;;;;;;;;;;;;;;;;;;4939174;29;20013;-88
2022/09/14 13:15:17;;;;;;;;;;;;;;;;;;4924059;29;20010;-91
2022/09/14 13:17:43;;;;;;;;;;;;;;;;;;4916284;29;19911;-90
2022/09/14 13:20:08;;;;;;;;;;;;;;;;;;4914824;29;20330;-90
2022/09/14 13:22:33;;;;;;;;;;;;;;;;;;4915933;29;19959;-90
2022/09/14 13:24:59;;;;;;;;;;;;;;;;;;4920840;29;19915;-91
2022/09/14 13:27:24;;;;;;;;;;;;;;;;;;4934696;29;20288;-90
2022/09/14 13:29:49;;;;;;;;;;;;;;;;;;4937101;29;20105;-90
2022/09/14 13:32:14;;;;;;;;;;;;;;;;;;4935082;29;19954;-90
2022/09/14 13:34:39;;;;;;;;;;;;;;;;;;4927489;29;19921;-89
2022/09/14 13:37:05;;;;;;;;;;;;;;;;;;4929265;29;19945;-89
2022/09/14 13:39:30;;;;;;;;;;;;;;;;;;4934348;29;19911;-90
2022/09/14 13:41:55;;;;;;;;;;;;;;;;;;4922423;29;19962;-89
2022/09/14 13:44:20;;;;;;;;;;;;;;;;;;4927018;29;20006;-88
2022/09/14 13:46:46;;;;;;;;;;;;;;;;;;4930312;29;19969;-89
2022/09/14 13:49:11;;;;;;;;;;;;;;;;;;4925611;29;19919;-89
2022/09/14 13:51:36;;;;;;;;;;;;;;;;;;4934025;29;20005;-90
2022/09/14 13:54:01;;;;;;;;;;;;;;;;;;4931074;29;20357;-91
2022/09/14 13:56:28;;;;;;;;;;;;;;;;;;4937379;29;20334;-90
2022/09/14 13:58:53;;;;;;;;;;;;;;;;;;4934586;29;20326;-88
2022/09/14 14:01:18;;;;;;;;;;;;;;;;;;4933150;29;19996;-90
2022/09/14 14:03:44;;;;;;;;;;;;;;;;;;4924100;29;19915;-90
2022/09/14 14:06:09;;;;;;;;;;;;;;;;;;4933887;29;19911;-90
2022/09/14 14:08:34;;;;;;;;;;;;;;;;;;4933996;29;19915;-91
2022/09/14 14:11:00;;;;;;;;;;;;;;;;;;4933920;29;19915;-90
2022/09/14 14:13:25;;;;;;;;;;;;;;;;;;4925510;29;19911;-88
2022/09/14 14:15:52;;;;;;;;;;;;;;;;;;4913112;29;19911;-90
2022/09/14 14:18:17;;;;;;;;;;;;;;;;;;4918311;29;20266;-90
2022/09/14 14:20:42;;;;;;;;;;;;;;;;;;4931982;29;19914;-89
2022/09/14 14:23:08;;;;;;;;;;;;;;;;;;4933459;29;19911;-90
2022/09/14 14:25:33;;;;;;;;;;;;;;;;;;4926123;29;19911;-90
2022/09/14 14:27:59;;;;;;;;;;;;;;;;;;4913120;29;19915;-91
2022/09/14 14:30:25;;;;;;;;;;;;;;;;;;4914620;29;20385;-90
2022/09/14 14:32:51;;;;;;;;;;;;;;;;;;4924374;29;20061;-90
2022/09/14 14:35:16;;;;;;;;;;;;;;;;;;4933763;29;19998;-90
2022/09/14 14:37:43;;;;;;;;;;;;;;;;;;4933858;29;20026;-91
2022/09/14 14:40:08;;;;;;;;;;;;;;;;;;4933640;29;19914;-91
2022/09/14 14:42:33;;;;;;;;;;;;;;;;;;4933972;29;20046;-89
2022/09/14 14:44:59;;;;;;;;;;;;;;;;;;4933639;29;20296;-90
2022/09/14 14:47:26;;;;;;;;;;;;;;;;;;4933430;29;20373;-90
2022/09/14 14:49:52;;;;;;;;;;;;;;;;;;4933437;29;20095;-90
2022/09/14 14:52:17;;;;;;;;;;;;;;;;;;4933359;29;19994;-91
2022/09/14 14:54:42;;;;;;;;;;;;;;;;;;4933972;29;20047;-91
2022/09/14 14:57:07;;;;;;;;;;;;;;;;;;4933942;29;20292;-91
2022/09/14 14:59:33;;;;;;;;;;;;;;;;;;4933439;29;19918;-91
2022/09/14 15:01:58;;;;;;;;;;;;;;;;;;4922436;29;19918;-91
2022/09/14 15:04:23;;;;;;;;;;;;;;;;;;4913979;29;19963;-91
2022/09/14 15:06:48;;;;;;;;;;;;;;;;;;4914735;29;19911;-92
2022/09/14 15:09:13;;;;;;;;;;;;;;;;;;4914902;29;19988;-91
2022/09/14 15:11:39;;;;;;;;;;;;;;;;;;4914793;29;19915;-91
2022/09/14 15:14:05;;;;;;;;;;;;;;;;;;4916897;29;19915;-91
2022/09/14 15:16:30;;;;;;;;;;;;;;;;;;4915447;29;20071;-92
2022/09/14 15:18:55;;;;;;;;;;;;;;;;;;4924930;29;20423;-92
2022/09/14 15:21:20;;;;;;;;;;;;;;;;;;4926328;29;19922;-92
2022/09/14 15:23:45;;;;;;;;;;;;;;;;;;4925246;29;19931;-91
2022/09/14 15:26:10;;;;;;;;;;;;;;;;;;4926298;29;20194;-92
2022/09/14 19:00:57;;;;;;;;;;;;;;;;;;4909026;29;19934;-85
2022/09/14 19:03:22;;;;;;;;;;;;;;;;;;4907355;29;20572;-86
2022/09/14 19:05:47;;;;;;;;;;;;;;;;;;4905900;29;19962;-86
2022/09/14 19:08:12;;;;;;;;;;;;;;;;;;4895849;29;19943;-86
2022/09/14 19:10:38;;;;;;;;;;;;;;;;;;4897280;29;19919;-87
2022/09/14 19:13:03;;;;;;;;;;;;;;;;;;4896602;29;19969;-86
2022/09/14 19:15:28;;;;;;;;;;;;;;;;;;4899133;29;19927;-86
2022/09/14 19:17:53;;;;;;;;;;;;;;;;;;4897905;29;20303;-86
2022/09/14 19:20:21;;;;;;;;;;;;;;;;;;4905668;29;19923;-86
2022/09/14 19:22:46;;;;;;;;;;;;;;;;;;4899922;29;19919;-86
2022/09/14 19:25:11;;;;;;;;;;;;;;;;;;4902810;29;19919;-86
2022/09/14 19:27:36;;;;;;;;;;;;;;;;;;4902422;29;19984;-86
2022/09/14 19:30:01;;;;;;;;;;;;;;;;;;4906655;29;19981;-86
2022/09/14 19:32:27;;;;;;;;;;;;;;;;;;4902915;29;20006;-85
2022/09/14 19:34:53;;;;;;;;;;;;;;;;;;4902125;29;19923;-86
2022/09/14 19:37:18;;;;;;;;;;;;;;;;;;4905311;29;19919;-86
2022/09/14 19:39:43;;;;;;;;;;;;;;;;;;4903426;29;19926;-86
2022/09/14 19:42:08;;;;;;;;;;;;;;;;;;4905306;29;19971;-86
2022/09/14 19:44:33;;;;;;;;;;;;;;;;;;4902433;29;19927;-86
2022/09/14 19:46:59;;;;;;;;;;;;;;;;;;4902380;29;19983;-86
2022/09/14 19:49:24;;;;;;;;;;;;;;;;;;4898850;29;19943;-86
2022/09/14 19:51:49;;;;;;;;;;;;;;;;;;4898237;29;19920;-86
2022/09/14 19:54:14;;;;;;;;;;;;;;;;;;4900613;29;19919;-86
2022/09/14 19:56:40;;;;;;;;;;;;;;;;;;4905507;29;19968;-86
2022/09/14 19:59:06;;;;;;;;;;;;;;;;;;4899116;29;19916;-86
2022/09/14 20:01:31;;;;;;;;;;;;;;;;;;4901624;29;19983;-86
2022/09/14 20:03:56;;;;;;;;;;;;;;;;;;4902383;29;20405;-86